createdAt,value
2023-01-24T00:01:15.560Z,97528.53
2023-01-24T00:03:44.686Z,97529.34
2023-01-24T00:06:12.185Z,97522.38
2023-01-24T00:08:39.875Z,97517.53
2023-01-24T00:11:08.884Z,97539.44
2023-01-24T00:13:37.754Z,97540.16
2023-01-24T00:16:07.760Z,97529.63
2023-01-24T00:18:37.075Z,97493.88
2023-01-24T00:21:10.374Z,97537.16
2023-01-24T00:23:38.451Z,97526.53
2023-01-24T00:26:06.402Z,97544.56
2023-01-24T00:28:34.713Z,97551.06
2023-01-24T00:31:02.992Z,97512.44
2023-01-24T00:33:31.002Z,97513.53
2023-01-24T00:35:58.501Z,97540.25
2023-01-24T00:38:27.789Z,97542.06
2023-01-24T00:40:55.277Z,97550.41
2023-01-24T00:43:22.764Z,97547.28
2023-01-24T00:45:50.431Z,97552.69
2023-01-24T00:48:17.966Z,97547.84
2023-01-24T00:50:45.626Z,97558.47
2023-01-24T00:53:13.565Z,97554.81
2023-01-24T00:55:46.625Z,97549.84
2023-01-24T00:58:15.091Z,97544.75
2023-01-24T01:00:42.735Z,97515.00
2023-01-24T01:03:14.223Z,97542.84
2023-01-24T01:05:42.507Z,97540.44
2023-01-24T01:08:10.774Z,97538.84
2023-01-24T01:10:38.905Z,97539.59
2023-01-24T01:13:08.152Z,97538.94
2023-01-24T01:15:36.183Z,97540.97
2023-01-24T01:18:03.676Z,97545.53
2023-01-24T01:20:31.201Z,97536.94
2023-01-24T01:22:58.666Z,97544.06
2023-01-24T01:25:26.448Z,97508.44
2023-01-24T01:27:54.240Z,97538.00
2023-01-24T01:30:23.209Z,97554.03
2023-01-24T01:32:50.737Z,97544.91
2023-01-24T01:35:18.333Z,97555.03
2023-01-24T01:37:45.825Z,97558.38
2023-01-24T01:40:13.593Z,97550.31
2023-01-24T01:42:51.748Z,97535.91
2023-01-24T01:45:36.379Z,97548.44
2023-01-24T01:48:12.683Z,97549.53
2023-01-24T01:50:43.191Z,97561.09
2023-01-24T01:53:11.184Z,97546.03
2023-01-24T01:55:42.289Z,97553.81
2023-01-24T01:58:10.072Z,97550.03
2023-01-24T02:00:39.458Z,97521.25
2023-01-24T02:03:29.140Z,97554.59
2023-01-24T02:05:56.793Z,97548.03
2023-01-24T02:08:25.219Z,97561.50
2023-01-24T02:11:11.192Z,97551.25
2023-01-24T02:13:40.519Z,97541.84
2023-01-24T02:16:09.843Z,97565.00
2023-01-24T02:18:39.375Z,97556.66
2023-01-24T02:21:10.491Z,97561.50
2023-01-24T02:23:49.465Z,97557.59
2023-01-24T02:26:22.266Z,97561.22
2023-01-24T02:28:53.828Z,97563.91
2023-01-24T02:31:21.329Z,97560.94
2023-01-24T02:33:48.805Z,97546.63
2023-01-24T02:36:21.625Z,97544.41
2023-01-24T02:38:55.352Z,97551.00
2023-01-24T02:41:30.192Z,97532.72
2023-01-24T02:44:03.483Z,97530.84
2023-01-24T02:46:31.987Z,97556.38
2023-01-24T02:48:59.486Z,97553.97
2023-01-24T02:51:44.504Z,97503.28
2023-01-24T02:54:12.020Z,97560.72
2023-01-24T02:56:58.490Z,97551.25
2023-01-24T02:59:27.967Z,97548.84
2023-01-24T03:01:55.470Z,97552.22
2023-01-24T03:04:22.995Z,97551.13
2023-01-24T03:06:50.600Z,97542.50
2023-01-24T03:09:34.216Z,97547.38
2023-01-24T03:12:22.412Z,97556.81
2023-01-24T03:15:07.613Z,97542.56
2023-01-24T03:17:52.952Z,97551.31
2023-01-24T03:20:38.311Z,97552.09
2023-01-24T03:23:23.489Z,97544.41
2023-01-24T03:26:12.886Z,97535.97
2023-01-24T03:28:59.736Z,97526.81
2023-01-24T03:31:44.880Z,97546.59
2023-01-24T03:34:29.908Z,97550.22
2023-01-24T03:36:58.505Z,97539.56
2023-01-24T03:39:44.028Z,97547.66
2023-01-24T03:42:12.020Z,97546.59
2023-01-24T03:44:40.923Z,97531.38
2023-01-24T03:47:08.386Z,97542.41
2023-01-24T03:49:56.006Z,97538.53
2023-01-24T03:52:29.902Z,97526.44
2023-01-24T03:54:58.331Z,97496.97
2023-01-24T03:57:27.375Z,97499.00
2023-01-24T03:59:56.402Z,97550.75
2023-01-24T04:02:23.983Z,97538.41
2023-01-24T04:05:09.245Z,97550.50
2023-01-24T04:07:36.747Z,97549.16
2023-01-24T04:10:05.248Z,97544.97
2023-01-24T04:12:33.169Z,97549.31
2023-01-24T04:15:03.125Z,97549.03
2023-01-24T04:17:30.934Z,97543.25
2023-01-24T04:19:58.517Z,97516.75
2023-01-24T04:22:26.352Z,97545.13
2023-01-24T04:24:54.261Z,97516.19
2023-01-24T04:27:24.679Z,97523.59
2023-01-24T04:29:52.196Z,97521.44
2023-01-24T04:32:21.069Z,97521.44
2023-01-24T04:34:48.562Z,97544.03
2023-01-24T04:37:16.085Z,97544.03
2023-01-24T04:39:46.485Z,97544.97
2023-01-24T04:42:14.005Z,97537.03
2023-01-24T04:44:41.534Z,97538.41
2023-01-24T04:47:09.121Z,97535.44
2023-01-24T04:49:38.000Z,97485.44
2023-01-24T04:52:06.213Z,97525.75
2023-01-24T04:54:33.803Z,97541.41
2023-01-24T04:57:01.255Z,97529.00
2023-01-24T04:59:28.711Z,97527.41
2023-01-24T05:01:56.201Z,97517.84
2023-01-24T05:04:23.701Z,97535.88
2023-01-24T05:06:53.644Z,97531.03
2023-01-24T05:09:22.438Z,97496.63
2023-01-24T05:11:50.021Z,97541.94
2023-01-24T05:14:17.526Z,97520.97
2023-01-24T05:16:45.260Z,97521.22
2023-01-24T05:19:12.880Z,97546.50
2023-01-24T05:21:40.356Z,97539.91
2023-01-24T05:24:09.512Z,97542.84
2023-01-24T05:26:37.114Z,97526.47
2023-01-24T05:29:04.564Z,97532.50
2023-01-24T05:31:32.256Z,97542.22
2023-01-24T05:33:59.761Z,97543.72
2023-01-24T05:36:27.209Z,97538.72
2023-01-24T05:38:54.677Z,97550.44
2023-01-24T05:41:23.628Z,97542.75
2023-01-24T05:43:51.684Z,97545.59
2023-01-24T05:46:21.501Z,97531.34
2023-01-24T05:48:49.899Z,97550.97
2023-01-24T05:51:20.141Z,97548.28
2023-01-24T05:53:48.561Z,97549.50
2023-01-24T05:56:19.558Z,97553.25
2023-01-24T05:58:49.888Z,97550.00
2023-01-24T06:01:19.514Z,97550.28
2023-01-24T06:03:48.546Z,97546.53
2023-01-24T06:06:17.768Z,97567.41
2023-01-24T06:08:45.703Z,97560.16
2023-01-24T06:11:15.009Z,97534.72
2023-01-24T06:13:42.795Z,97554.09
2023-01-24T06:16:15.609Z,97560.81
2023-01-24T06:18:43.726Z,97574.00
2023-01-24T06:21:22.683Z,97571.06
2023-01-24T06:23:50.613Z,97578.84
2023-01-24T06:26:18.625Z,97571.06
2023-01-24T06:28:46.709Z,97577.53
2023-01-24T06:31:26.397Z,97579.69
2023-01-24T06:34:09.907Z,97532.56
2023-01-24T06:36:48.644Z,97585.47
2023-01-24T06:39:17.329Z,97596.38
2023-01-24T06:41:45.283Z,97570.00
2023-01-24T06:44:13.561Z,97582.91
2023-01-24T06:46:42.453Z,97589.50
2023-01-24T06:49:11.789Z,97606.19
2023-01-24T06:51:39.498Z,97603.22
2023-01-24T06:54:06.999Z,97593.69
2023-01-24T06:56:34.562Z,97604.84
2023-01-24T06:59:02.119Z,97603.09
2023-01-24T07:01:29.761Z,97607.81
2023-01-24T07:03:58.624Z,97607.94
2023-01-24T07:06:27.684Z,97600.94
2023-01-24T07:08:55.194Z,97601.75
2023-01-24T07:11:23.788Z,97608.47
2023-01-24T07:13:51.258Z,97615.88
2023-01-24T07:16:18.973Z,97620.72
2023-01-24T07:18:46.959Z,97611.47
2023-01-24T07:21:16.455Z,97627.75
2023-01-24T07:23:46.273Z,97625.31
2023-01-24T07:26:14.757Z,97621.97
2023-01-24T07:28:42.900Z,97629.06
2023-01-24T07:31:14.170Z,97633.91
2023-01-24T07:33:41.698Z,97621.28
2023-01-24T07:36:13.563Z,97630.84
2023-01-24T07:38:42.501Z,97641.44
2023-01-24T07:41:10.797Z,97633.50
2023-01-24T07:43:38.548Z,97634.06
2023-01-24T07:46:06.396Z,97634.84
2023-01-24T07:48:33.889Z,97640.53
2023-01-24T07:51:01.641Z,97644.56
2023-01-24T07:53:29.705Z,97634.06
2023-01-24T07:56:02.289Z,97643.09
2023-01-24T07:58:30.592Z,97631.50
2023-01-24T08:00:58.680Z,97646.47
2023-01-24T08:03:26.524Z,97640.50
2023-01-24T08:05:54.358Z,97651.97
2023-01-24T08:08:21.791Z,97650.75
2023-01-24T08:10:49.279Z,97622.06
2023-01-24T08:13:18.157Z,97657.75
2023-01-24T08:15:45.595Z,97670.16
2023-01-24T08:18:13.029Z,97663.41
2023-01-24T08:20:40.461Z,97657.22
2023-01-24T08:23:08.148Z,97673.09
2023-01-24T08:25:35.689Z,97665.72
2023-01-24T08:28:03.223Z,97672.16
2023-01-24T08:30:32.016Z,97670.56
2023-01-24T08:33:04.396Z,97667.19
2023-01-24T08:35:32.399Z,97687.38
2023-01-24T08:38:00.330Z,97691.03
2023-01-24T08:40:31.239Z,97687.28
2023-01-24T08:43:02.480Z,97664.75
2023-01-24T08:45:30.052Z,97683.50
2023-01-24T08:47:58.923Z,97678.38
2023-01-24T08:50:26.680Z,97699.78
2023-01-24T08:52:56.919Z,97689.53
2023-01-24T08:55:24.997Z,97687.41
2023-01-24T08:57:52.826Z,97700.47
2023-01-24T09:00:20.720Z,97707.63
2023-01-24T09:02:48.195Z,97699.38
2023-01-24T09:05:17.297Z,97706.78
2023-01-24T09:07:44.949Z,97712.88
2023-01-24T09:10:12.808Z,97705.72
2023-01-24T09:12:40.273Z,97706.28
2023-01-24T09:15:08.796Z,97712.88
2023-01-24T09:17:36.282Z,97694.53
2023-01-24T09:20:03.969Z,97688.88
2023-01-24T09:22:32.807Z,97703.81
2023-01-24T09:25:00.280Z,97710.84
2023-01-24T09:27:27.757Z,97692.78
2023-01-24T09:29:55.181Z,97713.66
2023-01-24T09:32:22.707Z,97690.22
2023-01-24T09:34:50.711Z,97708.81
2023-01-24T09:37:18.963Z,97713.00
2023-01-24T09:39:48.043Z,97685.38
2023-01-24T09:42:33.248Z,97713.53
2023-01-24T09:45:13.485Z,97702.09
2023-01-24T09:47:45.478Z,97706.13
2023-01-24T09:50:20.000Z,97716.72
2023-01-24T09:52:53.661Z,97708.47
2023-01-24T09:55:26.915Z,97704.81
2023-01-24T09:57:59.227Z,97710.78
2023-01-24T10:00:28.489Z,97728.53
2023-01-24T10:02:57.969Z,97726.63
2023-01-24T10:05:33.706Z,97709.31
2023-01-24T10:08:16.946Z,97711.03
2023-01-24T10:10:54.996Z,97732.88
2023-01-24T10:13:46.448Z,97723.19
2023-01-24T10:16:32.457Z,97717.81
2023-01-24T10:19:09.368Z,97718.09
2023-01-24T10:21:51.452Z,97712.00
2023-01-24T10:24:24.890Z,97712.53
2023-01-24T10:26:54.182Z,97721.81
2023-01-24T10:29:23.794Z,97724.53
2023-01-24T10:31:58.401Z,97717.34
2023-01-24T10:34:31.167Z,97722.34
2023-01-24T10:37:02.506Z,97712.94
2023-01-24T10:39:30.016Z,97698.50
2023-01-24T10:41:58.805Z,97725.16
2023-01-24T10:44:28.926Z,97703.47
2023-01-24T10:47:24.600Z,97708.59
2023-01-24T10:49:59.271Z,97712.34
2023-01-24T10:52:27.499Z,97699.41
2023-01-24T10:54:56.499Z,97701.91
2023-01-24T10:57:37.180Z,97694.22
2023-01-24T11:00:21.275Z,97706.50
2023-01-24T11:02:51.147Z,97701.72
2023-01-24T11:05:21.049Z,97700.03
2023-01-24T11:07:50.908Z,97703.28
2023-01-24T11:10:24.394Z,97690.97
2023-01-24T11:12:56.353Z,97698.78
2023-01-24T11:15:29.986Z,97682.53
2023-01-24T11:18:00.253Z,97688.44
2023-01-24T11:20:32.626Z,97687.97
2023-01-24T11:23:05.932Z,97687.56
2023-01-24T11:25:33.411Z,97696.88
2023-01-24T11:28:02.193Z,97693.13
2023-01-24T11:30:35.097Z,97688.75
2023-01-24T11:33:23.683Z,97670.81
2023-01-24T11:35:56.097Z,97693.31
2023-01-24T11:38:30.776Z,97696.78
2023-01-24T11:41:11.657Z,97689.50
2023-01-24T11:43:58.279Z,97688.25
2023-01-24T11:46:40.062Z,97690.22
2023-01-24T11:49:27.108Z,97692.69
2023-01-24T11:52:06.233Z,97688.53
2023-01-24T11:54:46.484Z,97692.03
2023-01-24T11:57:27.847Z,97683.41
2023-01-24T12:00:20.651Z,97663.81
2023-01-24T12:03:08.216Z,97677.16
2023-01-24T12:05:49.639Z,97665.63
2023-01-24T12:08:32.115Z,97661.91
2023-01-24T12:11:22.836Z,97653.31
2023-01-24T12:14:07.574Z,97665.09
2023-01-24T12:16:47.354Z,97666.03
2023-01-24T12:19:39.790Z,97659.22
2023-01-24T12:22:14.214Z,97646.78
2023-01-24T12:24:44.198Z,97655.13
2023-01-24T12:27:18.096Z,97660.59
2023-01-24T12:29:54.253Z,97661.56
2023-01-24T12:32:27.315Z,97659.78
2023-01-24T12:35:01.412Z,97652.94
2023-01-24T12:37:35.413Z,97645.94
2023-01-24T12:40:11.642Z,97653.22
2023-01-24T12:42:48.748Z,97644.91
2023-01-24T12:45:21.022Z,97647.31
2023-01-24T12:47:54.156Z,97620.75
2023-01-24T12:50:27.697Z,97637.25
2023-01-24T12:53:05.433Z,97616.94
2023-01-24T12:55:38.263Z,97645.31
2023-01-24T12:58:15.557Z,97644.16
2023-01-24T13:00:53.674Z,97641.13
2023-01-24T13:03:55.384Z,97639.69
2023-01-24T13:06:30.888Z,97633.75
2023-01-24T13:09:09.044Z,97621.50
2023-01-24T13:11:46.006Z,97598.88
2023-01-24T13:14:19.427Z,97636.66
2023-01-24T13:17:06.503Z,97642.47
2023-01-24T13:19:56.015Z,97641.44
2023-01-24T13:22:38.865Z,97635.91
2023-01-24T13:25:27.468Z,97627.00
2023-01-24T13:28:01.830Z,97626.94
2023-01-24T13:30:39.822Z,97624.72
2023-01-24T13:33:12.623Z,97633.56
2023-01-24T13:35:48.514Z,97625.56
2023-01-24T13:38:20.562Z,97634.94
2023-01-24T13:41:00.142Z,97626.69
2023-01-24T13:43:57.160Z,97633.72
2023-01-24T13:46:58.694Z,97631.00
2023-01-24T13:49:35.671Z,97635.19
2023-01-24T13:52:25.662Z,97631.97
2023-01-24T13:54:54.440Z,97635.47
2023-01-24T13:57:25.225Z,97636.09
2023-01-24T14:00:05.063Z,97639.66
2023-01-24T14:02:35.256Z,97633.38
2023-01-24T14:05:03.287Z,97630.88
2023-01-24T14:07:37.503Z,97637.03
2023-01-24T14:10:09.065Z,97635.09
2023-01-24T14:12:40.051Z,97616.25
2023-01-24T14:15:26.979Z,97628.25
2023-01-24T14:17:54.518Z,97624.84
2023-01-24T14:20:40.391Z,97636.16
2023-01-24T14:23:16.533Z,97632.09
2023-01-24T14:25:51.498Z,97634.03
2023-01-24T14:28:24.869Z,97628.91
2023-01-24T14:30:57.240Z,97626.34
2023-01-24T14:33:46.780Z,97628.69
2023-01-24T14:36:25.828Z,97632.66
2023-01-24T14:39:12.518Z,97637.59
2023-01-24T14:41:41.972Z,97639.25
2023-01-24T14:44:18.707Z,97632.78
2023-01-24T14:46:53.790Z,97631.72
2023-01-24T14:49:28.871Z,97625.81
2023-01-24T14:52:02.742Z,97643.56
2023-01-24T14:54:33.004Z,97626.78
2023-01-24T14:57:01.830Z,97633.44
2023-01-24T14:59:29.368Z,97647.69
2023-01-24T15:01:56.778Z,97647.47
2023-01-24T15:04:26.344Z,97634.13
2023-01-24T15:07:09.150Z,97636.44
2023-01-24T15:09:36.603Z,97646.53
2023-01-24T15:12:24.363Z,97633.44
2023-01-24T15:14:53.788Z,97627.69
2023-01-24T15:17:24.813Z,97633.34
2023-01-24T15:19:57.085Z,97631.16
2023-01-24T15:22:26.763Z,97634.66
2023-01-24T15:24:55.860Z,97626.84
2023-01-24T15:27:39.584Z,97635.72
2023-01-24T15:30:13.504Z,97623.47
2023-01-24T15:32:43.819Z,97636.56
2023-01-24T15:35:34.982Z,97627.28
2023-01-24T15:38:25.471Z,97637.53
2023-01-24T15:41:01.653Z,97637.69
2023-01-24T15:43:47.210Z,97632.69
2023-01-24T15:46:46.082Z,97633.34
2023-01-24T15:49:34.705Z,97634.56
2023-01-24T15:52:28.613Z,97630.00
2023-01-24T15:54:59.635Z,97636.19
2023-01-24T15:57:30.415Z,97635.66
2023-01-24T16:00:02.140Z,97639.44
2023-01-24T16:02:29.814Z,97650.47
2023-01-24T16:04:57.358Z,97634.47
2023-01-24T16:07:24.827Z,97659.09
2023-01-24T16:09:55.803Z,97652.25
2023-01-24T16:12:24.449Z,97660.31
2023-01-24T16:15:07.773Z,97653.56
2023-01-24T16:17:38.157Z,97654.25
2023-01-24T16:20:17.715Z,97664.22
2023-01-24T16:22:45.422Z,97669.50
2023-01-24T16:25:13.251Z,97665.19
2023-01-24T16:27:41.448Z,97657.75
2023-01-24T16:30:15.094Z,97665.69
2023-01-24T16:32:44.053Z,97662.59
2023-01-24T16:35:11.713Z,97634.75
2023-01-24T16:37:39.154Z,97673.78
2023-01-24T16:40:07.969Z,97656.00
2023-01-24T16:42:40.885Z,97676.47
2023-01-24T16:45:12.983Z,97669.34
2023-01-24T16:47:40.570Z,97662.88
2023-01-24T16:50:11.952Z,97655.19
2023-01-24T16:52:39.738Z,97661.53
2023-01-24T16:55:08.358Z,97665.56
2023-01-24T16:57:35.888Z,97658.84
2023-01-24T17:00:04.209Z,97662.75
2023-01-24T17:02:31.884Z,97650.06
2023-01-24T17:04:59.401Z,97643.63
2023-01-24T17:07:30.095Z,97660.47
2023-01-24T17:09:58.432Z,97653.31
2023-01-24T17:12:25.854Z,97652.38
2023-01-24T17:14:53.286Z,97655.59
2023-01-24T17:17:20.865Z,97661.00
2023-01-24T17:19:48.293Z,97665.72
2023-01-24T17:22:15.715Z,97656.69
2023-01-24T17:24:44.561Z,97643.47
2023-01-24T17:27:12.057Z,97661.00
2023-01-24T17:29:40.304Z,97652.91
2023-01-24T17:32:07.858Z,97661.00
2023-01-24T17:34:35.354Z,97662.34
2023-01-24T17:37:02.775Z,97666.38
2023-01-24T17:39:30.228Z,97647.38
2023-01-24T17:41:59.033Z,97661.25
2023-01-24T17:44:26.615Z,97673.91
2023-01-24T17:46:54.135Z,97661.66
2023-01-24T17:49:21.630Z,97665.56
2023-01-24T17:51:50.022Z,97658.84
2023-01-24T17:54:18.400Z,97642.41
2023-01-24T17:56:46.118Z,97661.53
2023-01-24T17:59:14.891Z,97660.03
2023-01-24T18:01:42.390Z,97669.91
2023-01-24T18:04:09.900Z,97662.34
2023-01-24T18:06:37.724Z,97658.44
2023-01-24T18:09:05.376Z,97655.59
2023-01-24T18:11:32.901Z,97657.22
2023-01-24T18:14:00.377Z,97647.91
2023-01-24T18:16:29.262Z,97661.00
2023-01-24T18:18:56.821Z,97654.38
2023-01-24T18:21:25.799Z,97666.25
2023-01-24T18:23:54.401Z,97655.84
2023-01-24T18:26:22.136Z,97644.00
2023-01-24T18:28:50.227Z,97647.25
2023-01-24T18:31:18.345Z,97652.91
2023-01-24T18:33:47.216Z,97646.72
2023-01-24T18:36:17.763Z,97656.56
2023-01-24T18:38:46.138Z,97654.78
2023-01-24T18:41:14.561Z,97650.63
2023-01-24T18:43:42.331Z,97646.03
2023-01-24T18:46:12.910Z,97632.03
2023-01-24T18:48:43.957Z,97651.84
2023-01-24T18:51:14.068Z,97648.88
2023-01-24T18:53:41.707Z,97643.91
2023-01-24T18:56:09.217Z,97638.22
2023-01-24T18:58:38.323Z,97646.59
2023-01-24T19:01:12.342Z,97621.13
2023-01-24T19:03:40.694Z,97642.16
2023-01-24T19:06:09.374Z,97646.03
2023-01-24T19:08:52.229Z,97622.75
2023-01-24T19:11:24.629Z,97649.97
2023-01-24T19:13:53.365Z,97640.25
2023-01-24T19:16:21.102Z,97648.59
2023-01-24T19:18:48.770Z,97646.56
2023-01-24T19:21:16.434Z,97645.25
2023-01-24T19:23:47.650Z,97637.56
2023-01-24T19:26:16.656Z,97632.56
2023-01-24T19:28:44.428Z,97638.09
2023-01-24T19:31:12.407Z,97635.00
2023-01-24T19:33:40.179Z,97643.75
2023-01-24T19:36:09.939Z,97647.25
2023-01-24T19:38:37.456Z,97638.38
2023-01-24T19:41:08.109Z,97649.81
2023-01-24T19:43:37.694Z,97639.88
2023-01-24T19:46:11.281Z,97647.66
2023-01-24T19:48:39.697Z,97637.41
2023-01-24T19:51:09.061Z,97645.91
2023-01-24T19:53:36.811Z,97646.19
2023-01-24T19:56:07.631Z,97648.34
2023-01-24T19:58:35.966Z,97653.84
2023-01-24T20:01:08.166Z,97638.09
2023-01-24T20:03:37.262Z,97641.22
2023-01-24T20:06:09.189Z,97652.25
2023-01-24T20:08:36.770Z,97650.63
2023-01-24T20:11:08.068Z,97649.94
2023-01-24T20:13:35.745Z,97649.81
2023-01-24T20:16:04.667Z,97647.53
2023-01-24T20:18:32.202Z,97641.22
2023-01-24T20:20:59.751Z,97634.19
2023-01-24T20:23:27.303Z,97655.47
2023-01-24T20:25:54.769Z,97652.91
2023-01-24T20:28:23.547Z,97638.91
2023-01-24T20:30:51.027Z,97653.59
2023-01-24T20:33:18.483Z,97650.63
2023-01-24T20:35:46.026Z,97646.31
2023-01-24T20:38:13.585Z,97644.03
2023-01-24T20:40:41.948Z,97625.72
2023-01-24T20:43:10.230Z,97649.94
2023-01-24T20:45:39.049Z,97634.88
2023-01-24T20:48:06.919Z,97644.41
2023-01-24T20:50:34.346Z,97649.28
2023-01-24T20:53:01.786Z,97648.72
2023-01-24T20:55:29.225Z,97659.09
2023-01-24T20:57:56.692Z,97641.06
2023-01-24T21:00:24.377Z,97644.72
2023-01-24T21:02:53.818Z,97650.34
2023-01-24T21:05:21.408Z,97648.34
2023-01-24T21:07:49.577Z,97612.50
2023-01-24T21:10:17.258Z,97649.69
2023-01-24T21:12:44.851Z,97636.56
2023-01-24T21:15:12.607Z,97637.53
2023-01-24T21:17:40.049Z,97608.41
2023-01-24T21:20:12.929Z,97633.22
2023-01-24T21:22:42.123Z,97582.84
2023-01-24T21:25:10.928Z,97636.88
2023-01-24T21:27:38.610Z,97646.97
2023-01-24T21:30:07.274Z,97643.91
2023-01-24T21:32:34.776Z,97648.19
2023-01-24T21:35:09.815Z,97630.28
2023-01-24T21:37:43.149Z,97635.28
2023-01-24T21:40:12.045Z,97638.63
2023-01-24T21:42:39.936Z,97618.44
2023-01-24T21:45:08.895Z,97634.72
2023-01-24T21:47:36.567Z,97643.06
2023-01-24T21:50:04.419Z,97634.88
2023-01-24T21:52:31.894Z,97606.03
2023-01-24T21:55:00.715Z,97634.31
2023-01-24T21:57:45.859Z,97623.16
2023-01-24T22:00:13.957Z,97602.66
2023-01-24T22:02:41.692Z,97628.66
2023-01-24T22:05:10.306Z,97625.97
2023-01-24T22:07:38.019Z,97630.97
2023-01-24T22:10:07.977Z,97631.50
2023-01-24T22:12:36.491Z,97608.19
2023-01-24T22:15:04.809Z,97618.84
2023-01-24T22:17:34.510Z,97609.41
2023-01-24T22:20:02.561Z,97625.19
2023-01-24T22:22:50.404Z,97625.97
2023-01-24T22:25:32.369Z,97621.41
2023-01-24T22:28:00.448Z,97622.59
2023-01-24T22:30:29.159Z,97600.81
2023-01-24T22:32:57.159Z,97614.41
2023-01-24T22:35:26.891Z,97612.94
2023-01-24T22:37:57.552Z,97619.09
2023-01-24T22:40:27.281Z,97597.03
2023-01-24T22:42:57.295Z,97583.97
2023-01-24T22:45:25.465Z,97619.00
2023-01-24T22:47:52.984Z,97563.09
2023-01-24T22:50:20.903Z,97616.03
2023-01-24T22:52:48.703Z,97624.34
2023-01-24T22:55:17.201Z,97601.34
2023-01-24T22:57:46.206Z,97605.91
2023-01-24T23:00:15.216Z,97593.91
2023-01-24T23:02:42.774Z,97598.66
2023-01-24T23:05:11.019Z,97581.28
2023-01-24T23:07:39.269Z,97609.16
2023-01-24T23:10:07.698Z,97602.16
2023-01-24T23:12:52.924Z,97605.13
2023-01-24T23:15:39.435Z,97598.13
2023-01-24T23:18:13.589Z,97602.84
2023-01-24T23:20:58.948Z,97592.56
2023-01-24T23:23:26.440Z,97592.56
2023-01-24T23:25:53.945Z,97575.34
2023-01-24T23:28:21.464Z,97603.06
2023-01-24T23:31:00.567Z,97560.59
2023-01-24T23:33:32.781Z,97603.19
2023-01-24T23:36:01.692Z,97597.81
2023-01-24T23:38:30.660Z,97567.56
2023-01-24T23:40:58.241Z,97583.44
2023-01-24T23:43:25.899Z,97546.28
2023-01-24T23:45:54.731Z,97580.19
2023-01-24T23:48:23.719Z,97568.34
2023-01-24T23:50:57.740Z,97562.03
2023-01-24T23:53:25.315Z,97546.13
2023-01-24T23:55:52.910Z,97563.50
2023-01-24T23:58:20.413Z,97559.72
